Time;durP1;ratioP1;P1;durP2;ratioP2;P2;SDS_P1;SDS_P2;PMS_P1;PMS_P2;Temp;Humidity;BMP_temperature;BMP_pressure;BME280_temperature;BME280_humidity;BME280_pressure;Samples;Min_cycle;Max_cycle;Signal;HPM_P1;HPM_P2
2023/04/20 00:02:01;;;;;;;15.90;9.23;;;11.60;99.90;;;;;;5074737;28;20313;-73
2023/04/20 00:04:50;;;;;;;13.10;8.70;;;11.60;99.90;;;;;;5071697;28;20449;-71
2023/04/20 00:07:40;;;;;;;13.43;8.27;;;11.50;99.90;;;;;;5066795;28;21050;-68
2023/04/20 00:10:29;;;;;;;15.48;8.80;;;11.40;99.90;;;;;;5080696;28;20219;-71
2023/04/20 00:13:19;;;;;;;12.23;8.38;;;11.40;99.90;;;;;;5064870;28;20242;-71
2023/04/20 00:16:08;;;;;;;10.95;7.85;;;11.50;99.90;;;;;;5065001;28;20220;-70
2023/04/20 00:18:58;;;;;;;10.98;8.32;;;11.50;99.90;;;;;;5066127;28;20704;-70
2023/04/20 00:21:47;;;;;;;11.88;8.55;;;11.50;99.90;;;;;;5072529;28;20930;-71
2023/04/20 00:24:36;;;;;;;13.38;8.90;;;11.50;99.90;;;;;;5073729;28;20223;-70
2023/04/20 00:27:29;;;;;;;13.77;8.48;;;11.50;99.90;;;;;;5069586;27;20232;-69
2023/04/20 00:30:19;;;;;;;13.05;8.73;;;11.40;99.90;;;;;;5067678;28;20587;-69
2023/04/20 00:33:08;;;;;;;13.15;8.98;;;11.40;99.90;;;;;;5073930;28;20232;-71
2023/04/20 00:35:57;;;;;;;12.75;8.23;;;11.40;99.90;;;;;;5063407;28;20720;-67
2023/04/20 00:38:46;;;;;;;15.68;9.23;;;11.40;99.90;;;;;;5078135;28;20218;-68
2023/04/20 00:41:35;;;;;;;14.65;9.00;;;11.50;99.90;;;;;;5069315;28;20293;-69
2023/04/20 00:44:24;;;;;;;12.70;8.85;;;11.40;99.90;;;;;;5073487;28;20228;-69
2023/04/20 00:47:14;;;;;;;12.63;8.70;;;11.30;99.90;;;;;;5074733;28;20307;-69
2023/04/20 00:50:03;;;;;;;12.15;8.73;;;11.40;99.90;;;;;;5069110;28;20705;-68
2023/04/20 00:52:53;;;;;;;13.50;9.07;;;11.30;99.90;;;;;;5075204;28;21004;-67
2023/04/20 00:55:47;;;;;;;14.13;8.98;;;11.20;99.90;;;;;;5072669;28;20232;-68
2023/04/20 00:58:35;;;;;;;13.15;8.38;;;11.20;99.90;;;;;;5097549;27;20660;-70
2023/04/20 01:01:50;;;;;;;12.15;8.75;;;11.30;99.90;;;;;;5072862;28;20224;-70
2023/04/20 01:04:40;;;;;;;13.27;8.93;;;11.20;99.90;;;;;;5078239;28;20919;-69
2023/04/20 01:07:29;;;;;;;16.23;9.38;;;11.30;99.90;;;;;;5083334;28;20324;-69
2023/04/20 01:10:19;;;;;;;15.20;9.15;;;11.30;99.90;;;;;;5091557;27;20258;-70
2023/04/20 01:13:08;;;;;;;13.25;9.50;;;11.30;99.90;;;;;;5078856;28;20310;-69
2023/04/20 01:15:58;;;;;;;13.90;9.40;;;11.30;99.90;;;;;;5075627;28;20224;-69
2023/04/20 01:18:49;;;;;;;15.52;9.90;;;11.20;99.90;;;;;;5105402;27;20307;-70
2023/04/20 01:21:40;;;;;;;12.35;9.35;;;11.10;99.90;;;;;;5077993;28;20260;-69
2023/04/20 01:24:32;;;;;;;14.63;9.27;;;11.20;99.90;;;;;;5082790;28;20594;-70
2023/04/20 01:27:21;;;;;;;17.02;10.02;;;11.20;99.90;;;;;;5078978;28;20252;-69
2023/04/20 01:30:11;;;;;;;15.25;9.40;;;11.20;99.90;;;;;;5067495;28;20228;-68
2023/04/20 01:32:59;;;;;;;14.65;9.93;;;11.10;99.90;;;;;;5072861;28;20788;-68
2023/04/20 01:35:48;;;;;;;13.40;9.80;;;11.10;99.90;;;;;;5074168;28;20231;-68
2023/04/20 01:38:37;;;;;;;14.63;10.38;;;11.00;99.90;;;;;;5064439;28;20243;-71
2023/04/20 01:41:27;;;;;;;14.88;10.68;;;11.00;99.90;;;;;;5075943;27;20215;-70
2023/04/20 01:44:17;;;;;;;13.90;9.93;;;11.00;99.90;;;;;;5076013;28;20219;-68
2023/04/20 01:47:07;;;;;;;14.05;10.25;;;11.00;99.90;;;;;;5070568;28;20684;-70
2023/04/20 01:49:56;;;;;;;14.57;10.10;;;11.00;99.90;;;;;;5077593;28;20219;-70
2023/04/20 01:52:46;;;;;;;15.40;9.95;;;11.20;99.90;;;;;;5068958;28;20235;-71
2023/04/20 01:55:34;;;;;;;14.15;10.70;;;11.10;99.90;;;;;;5060799;28;20335;-72
2023/04/20 01:58:25;;;;;;;15.13;10.15;;;11.20;99.90;;;;;;5096099;27;20220;-72
2023/04/20 02:01:13;;;;;;;18.58;10.18;;;11.20;99.90;;;;;;5073049;28;20234;-72
2023/04/20 02:04:02;;;;;;;15.85;10.68;;;11.20;99.90;;;;;;5077962;28;20227;-72
2023/04/20 02:06:52;;;;;;;14.80;10.75;;;11.10;99.90;;;;;;5075971;28;20227;-72
2023/04/20 02:09:41;;;;;;;15.82;11.30;;;11.10;99.90;;;;;;5072322;28;20370;-73
2023/04/20 02:12:30;;;;;;;13.55;9.68;;;11.10;99.90;;;;;;5083820;28;20865;-70
2023/04/20 02:15:21;;;;;;;16.27;10.27;;;11.10;99.90;;;;;;5071038;28;20380;-70
2023/04/20 02:18:10;;;;;;;13.88;9.82;;;11.10;99.90;;;;;;5103992;27;20243;-69
2023/04/20 02:20:59;;;;;;;15.80;10.18;;;11.10;99.90;;;;;;5075694;28;20776;-71
2023/04/20 02:23:48;;;;;;;15.30;10.32;;;11.20;99.90;;;;;;5082874;28;20794;-69
2023/04/20 02:26:37;;;;;;;15.90;10.23;;;11.10;99.90;;;;;;5072974;28;20722;-70
2023/04/20 02:29:28;;;;;;;19.10;11.20;;;11.10;99.90;;;;;;5065929;28;20664;-71
2023/04/20 02:32:18;;;;;;;16.33;10.48;;;11.00;99.90;;;;;;5063164;28;20344;-70
2023/04/20 02:35:10;;;;;;;16.90;10.98;;;11.00;99.90;;;;;;5081080;28;20218;-70
2023/04/20 02:37:59;;;;;;;16.52;9.68;;;11.00;99.90;;;;;;5072323;28;20219;-70
2023/04/20 02:40:48;;;;;;;18.52;10.73;;;11.00;99.90;;;;;;5075577;28;20222;-72
2023/04/20 02:43:38;;;;;;;17.40;10.80;;;11.00;99.90;;;;;;5077002;28;20285;-69
2023/04/20 02:46:27;;;;;;;13.23;10.02;;;11.10;99.90;;;;;;5086891;27;20224;-68
2023/04/20 02:49:17;;;;;;;16.58;10.27;;;11.10;99.90;;;;;;5074208;28;20737;-67
2023/04/20 02:52:07;;;;;;;20.42;9.95;;;11.10;99.90;;;;;;5077534;28;20765;-69
2023/04/20 02:54:56;;;;;;;17.15;10.27;;;11.00;99.90;;;;;;5077856;28;20228;-69
2023/04/20 02:57:46;;;;;;;14.90;11.20;;;10.90;99.90;;;;;;5074018;28;20231;-69
2023/04/20 03:00:34;;;;;;;13.68;10.65;;;11.00;99.90;;;;;;5078634;28;20235;-71
2023/04/20 03:03:27;;;;;;;16.20;10.65;;;10.90;99.90;;;;;;5094870;27;20234;-69
2023/04/20 03:06:18;;;;;;;13.52;10.45;;;11.00;99.90;;;;;;5070435;28;20707;-69
2023/04/20 03:09:13;;;;;;;15.18;10.60;;;11.00;99.90;;;;;;5075029;28;20974;-69
2023/04/20 03:12:22;;;;;;;18.08;10.60;;;11.10;99.90;;;;;;5073622;28;20421;-69
2023/04/20 03:15:37;;;;;;;19.55;11.63;;;11.10;99.90;;;;;;5068784;28;20285;-70
2023/04/20 03:18:45;;;;;;;17.55;10.75;;;11.00;99.90;;;;;;5068990;28;20231;-69
2023/04/20 03:21:35;;;;;;;17.35;10.80;;;11.20;99.90;;;;;;5076104;28;20223;-70
2023/04/20 03:24:24;;;;;;;13.25;10.18;;;11.30;99.90;;;;;;5066644;28;20616;-70
2023/04/20 03:27:14;;;;;;;13.38;10.18;;;11.20;99.90;;;;;;5078303;28;20594;-71
2023/04/20 03:30:18;;;;;;;15.85;11.13;;;11.30;99.90;;;;;;5103648;28;20231;-70
2023/04/20 03:33:12;;;;;;;14.07;10.57;;;11.20;99.90;;;;;;5069838;28;20239;-69
2023/04/20 03:36:01;;;;;;;13.88;9.77;;;11.30;99.90;;;;;;5069880;28;20215;-70
2023/04/20 03:38:51;;;;;;;16.80;10.18;;;11.30;99.90;;;;;;5071452;28;20955;-70
2023/04/20 03:41:41;;;;;;;14.73;10.07;;;11.30;99.90;;;;;;5076548;28;20235;-71
2023/04/20 03:44:29;;;;;;;14.23;10.55;;;11.20;99.90;;;;;;5072664;28;20220;-69
2023/04/20 03:47:18;;;;;;;16.48;10.48;;;11.10;99.90;;;;;;5075204;28;20223;-71
2023/04/20 03:50:08;;;;;;;16.98;10.25;;;11.10;99.90;;;;;;5081616;28;20247;-71
2023/04/20 03:52:59;;;;;;;19.00;11.15;;;11.10;99.90;;;;;;5074401;28;20218;-70
2023/04/20 03:55:49;;;;;;;15.35;10.27;;;11.10;99.90;;;;;;5071609;27;20239;-70
2023/04/20 03:58:41;;;;;;;15.35;10.25;;;11.10;99.90;;;;;;5070638;28;20253;-69
2023/04/20 04:01:39;;;;;;;18.08;10.70;;;11.10;99.90;;;;;;5071790;28;20247;-71
2023/04/20 04:04:27;;;;;;;17.80;10.73;;;11.00;99.90;;;;;;5078066;28;20234;-70
2023/04/20 04:07:18;;;;;;;14.88;11.38;;;10.80;99.90;;;;;;5076731;28;20230;-70
2023/04/20 04:10:08;;;;;;;16.48;10.95;;;10.80;99.90;;;;;;5079603;28;20223;-69
2023/04/20 04:12:58;;;;;;;21.90;11.27;;;10.90;99.90;;;;;;5102825;27;21450;-68
2023/04/20 04:15:47;;;;;;;16.20;11.55;;;10.80;99.90;;;;;;5070608;28;20242;-67
2023/04/20 04:18:43;;;;;;;18.90;11.57;;;10.90;99.90;;;;;;5079590;28;20337;-68
2023/04/20 04:21:32;;;;;;;16.52;11.55;;;10.90;99.90;;;;;;5075750;28;20224;-71
2023/04/20 04:24:25;;;;;;;16.63;10.85;;;11.00;99.90;;;;;;5077154;28;20272;-67
2023/04/20 04:27:24;;;;;;;15.73;11.23;;;11.00;99.90;;;;;;5078579;28;20260;-71
2023/04/20 04:30:18;;;;;;;14.18;11.55;;;11.00;99.90;;;;;;5073225;28;20325;-70
2023/04/20 04:33:08;;;;;;;18.88;11.60;;;11.10;99.90;;;;;;5076561;28;20243;-69
2023/04/20 04:36:00;;;;;;;16.05;11.30;;;11.10;99.90;;;;;;5080747;28;20227;-72
2023/04/20 04:38:51;;;;;;;15.00;11.05;;;11.00;99.90;;;;;;5073186;28;20590;-71
2023/04/20 04:41:41;;;;;;;17.48;11.20;;;10.90;99.90;;;;;;5077981;28;20276;-72
2023/04/20 04:44:44;;;;;;;15.60;11.05;;;10.90;99.90;;;;;;5067806;28;20227;-70
2023/04/20 04:47:41;;;;;;;16.05;12.10;;;10.90;99.90;;;;;;5101817;27;20231;-70
2023/04/20 04:50:29;;;;;;;15.38;11.32;;;11.00;99.90;;;;;;5081387;28;20878;-71
2023/04/20 04:53:18;;;;;;;18.67;11.45;;;11.10;99.90;;;;;;5083401;28;20309;-72
2023/04/20 04:56:07;;;;;;;18.10;11.80;;;11.10;99.90;;;;;;5068850;28;20303;-72
2023/04/20 04:58:56;;;;;;;16.17;11.70;;;11.10;99.90;;;;;;5083807;28;20704;-69
2023/04/20 05:01:46;;;;;;;16.40;11.55;;;11.10;99.90;;;;;;5073390;28;20509;-70
2023/04/20 05:04:36;;;;;;;15.15;11.07;;;11.10;99.90;;;;;;5100083;27;20317;-72
2023/04/20 05:07:25;;;;;;;17.92;12.27;;;11.00;99.90;;;;;;5078421;28;20648;-69
2023/04/20 05:10:14;;;;;;;17.25;11.77;;;11.00;99.90;;;;;;5081389;28;20215;-67
2023/04/20 05:13:02;;;;;;;17.60;11.65;;;11.00;99.90;;;;;;5090680;28;20219;-68
2023/04/20 05:15:51;;;;;;;15.90;11.35;;;11.20;99.90;;;;;;5083829;28;20231;-67
2023/04/20 05:18:40;;;;;;;17.27;12.18;;;11.40;99.90;;;;;;5083940;28;20325;-71
2023/04/20 05:21:31;;;;;;;16.75;11.57;;;11.40;99.90;;;;;;5097838;27;20215;-71
2023/04/20 05:24:20;;;;;;;17.65;11.48;;;11.20;99.90;;;;;;5089584;28;20246;-71
2023/04/20 05:27:10;;;;;;;17.98;12.40;;;11.10;99.90;;;;;;5090350;28;20231;-69
2023/04/20 05:29:58;;;;;;;17.80;12.10;;;11.40;99.90;;;;;;5079121;28;21021;-70
2023/04/20 05:33:07;;;;;;;15.23;10.60;;;11.60;99.90;;;;;;5076457;28;20223;-70
2023/04/20 05:35:56;;;;;;;16.45;11.45;;;12.10;99.90;;;;;;5081557;28;20409;-71
2023/04/20 05:38:46;;;;;;;16.83;10.75;;;12.40;99.90;;;;;;5077750;28;20223;-72
2023/04/20 05:41:35;;;;;;;17.85;10.10;;;12.90;99.90;;;;;;5072362;28;20241;-71
2023/04/20 05:44:24;;;;;;;21.00;10.93;;;12.40;99.90;;;;;;5068240;28;20230;-71
2023/04/20 05:47:13;;;;;;;16.77;10.77;;;12.30;99.90;;;;;;5069276;28;20621;-73
2023/04/20 05:50:02;;;;;;;20.67;11.10;;;12.10;99.90;;;;;;5075705;28;20228;-68
2023/04/20 05:52:51;;;;;;;15.82;10.85;;;12.00;99.90;;;;;;5081702;28;20713;-69
2023/04/20 05:55:44;;;;;;;18.55;10.52;;;12.10;99.90;;;;;;5078843;28;20219;-71
2023/04/20 05:58:36;;;;;;;18.48;10.40;;;12.10;99.90;;;;;;5081520;28;20227;-71
2023/04/20 06:01:25;;;;;;;14.75;10.80;;;12.10;99.90;;;;;;5073797;28;20231;-70
2023/04/20 06:04:14;;;;;;;17.38;10.35;;;12.20;99.90;;;;;;5100370;27;20231;-71
2023/04/20 06:07:03;;;;;;;16.70;10.35;;;12.40;99.90;;;;;;5074305;28;20220;-70
2023/04/20 06:09:52;;;;;;;18.75;10.18;;;12.80;99.90;;;;;;5072408;28;20593;-72
2023/04/20 06:12:42;;;;;;;14.13;9.60;;;12.90;99.90;;;;;;5064368;28;20290;-70
2023/04/20 06:15:31;;;;;;;15.13;9.95;;;12.90;99.90;;;;;;5068831;28;20223;-71
2023/04/20 06:18:20;;;;;;;13.73;8.88;;;12.90;99.90;;;;;;5084546;28;20224;-69
2023/04/20 06:21:10;;;;;;;21.83;9.50;;;12.80;99.90;;;;;;5073591;28;20231;-70
2023/04/20 06:23:58;;;;;;;17.45;9.75;;;12.90;99.90;;;;;;5078924;28;20468;-70
2023/04/20 06:26:47;;;;;;;14.10;8.50;;;13.00;99.90;;;;;;5063785;28;20258;-70
2023/04/20 06:29:37;;;;;;;15.43;7.95;;;13.30;99.90;;;;;;5065758;28;20223;-71
2023/04/20 06:32:26;;;;;;;15.77;7.88;;;13.50;99.90;;;;;;5073272;28;20219;-71
2023/04/20 06:35:15;;;;;;;14.27;7.78;;;13.40;99.90;;;;;;5074163;28;20914;-71
2023/04/20 06:38:03;;;;;;;15.43;8.40;;;13.80;99.90;;;;;;5080004;28;20717;-71
2023/04/20 06:40:52;;;;;;;13.02;6.82;;;14.20;99.90;;;;;;5081875;28;20227;-70
2023/04/20 06:43:43;;;;;;;13.95;7.55;;;14.50;99.90;;;;;;5069387;28;20234;-70
2023/04/20 06:46:34;;;;;;;17.25;6.90;;;15.00;99.90;;;;;;5078027;28;20709;-70
2023/04/20 06:49:23;;;;;;;10.88;5.88;;;15.30;99.90;;;;;;5066074;28;20222;-70
2023/04/20 06:52:11;;;;;;;12.98;5.97;;;15.50;99.90;;;;;;5074089;28;20212;-70
2023/04/20 06:55:00;;;;;;;15.82;5.97;;;16.30;99.90;;;;;;5072607;28;20238;-70
2023/04/20 06:57:49;;;;;;;13.25;5.30;;;16.80;99.90;;;;;;5071678;28;20220;-70
2023/04/20 07:00:38;;;;;;;14.70;5.72;;;16.90;99.90;;;;;;5073436;28;20314;-71
2023/04/20 07:03:29;;;;;;;10.23;5.55;;;17.20;99.90;;;;;;5067843;28;20276;-69
2023/04/20 07:06:18;;;;;;;15.00;5.60;;;16.70;99.90;;;;;;5076079;28;20314;-69
2023/04/20 07:09:07;;;;;;;14.05;5.13;;;17.10;99.90;;;;;;5070873;27;20592;-69
2023/04/20 07:11:56;;;;;;;17.35;5.32;;;16.90;99.90;;;;;;5097582;27;20219;-71
2023/04/20 07:14:45;;;;;;;13.77;4.90;;;16.40;99.90;;;;;;5081827;28;20304;-69
2023/04/20 07:17:34;;;;;;;16.15;5.30;;;16.50;99.90;;;;;;5078458;28;20215;-69
2023/04/20 07:20:24;;;;;;;10.77;5.20;;;16.50;99.90;;;;;;5080700;28;20246;-68
2023/04/20 07:23:13;;;;;;;13.00;5.00;;;16.80;99.90;;;;;;5074576;28;20230;-71
2023/04/20 07:26:02;;;;;;;13.45;5.43;;;17.50;99.90;;;;;;5064639;28;20216;-70
2023/04/20 07:28:53;;;;;;;8.85;4.75;;;17.10;99.90;;;;;;5064582;28;20224;-71
2023/04/20 07:31:42;;;;;;;15.70;5.30;;;17.20;99.90;;;;;;5069998;28;20333;-71
2023/04/20 07:34:32;;;;;;;11.55;5.03;;;17.60;99.90;;;;;;5072197;28;20225;-71
2023/04/20 07:37:22;;;;;;;20.27;5.93;;;18.00;99.90;;;;;;5069779;28;20243;-71
2023/04/20 07:40:15;;;;;;;20.20;5.03;;;18.00;99.90;;;;;;5066499;28;20243;-70
2023/04/20 07:43:04;;;;;;;15.40;4.63;;;17.70;99.90;;;;;;5078660;28;20565;-71
2023/04/20 07:45:53;;;;;;;11.10;4.10;;;18.00;99.90;;;;;;5074140;28;20748;-70
2023/04/20 07:48:42;;;;;;;14.65;4.72;;;18.10;99.90;;;;;;5077293;28;20225;-71
2023/04/20 07:51:33;;;;;;;20.48;4.90;;;17.80;99.90;;;;;;5073577;28;20232;-68
2023/04/20 07:54:23;;;;;;;19.67;4.60;;;18.40;99.90;;;;;;5088367;28;20595;-70
2023/04/20 07:57:16;;;;;;;15.52;4.18;;;19.00;99.90;;;;;;5073873;28;20242;-68
2023/04/20 08:00:11;;;;;;;19.10;4.63;;;19.40;99.90;;;;;;5073885;28;20262;-69
2023/04/20 08:03:00;;;;;;;20.50;4.05;;;20.00;99.90;;;;;;5075129;28;20231;-70
2023/04/20 08:05:50;;;;;;;19.95;4.07;;;19.60;99.90;;;;;;5072659;28;20227;-70
2023/04/20 08:08:40;;;;;;;15.30;3.72;;;19.40;99.90;;;;;;5087252;28;20273;-69
2023/04/20 08:11:33;;;;;;;17.30;4.05;;;19.50;99.90;;;;;;5076923;28;20218;-70
2023/04/20 08:14:23;;;;;;;20.70;4.78;;;20.10;99.90;;;;;;5069668;28;20724;-68
2023/04/20 08:17:11;;;;;;;17.20;3.60;;;20.10;99.90;;;;;;5080578;28;20582;-70
2023/04/20 08:20:00;;;;;;;18.75;4.10;;;19.70;99.90;;;;;;5075984;28;20366;-70
2023/04/20 08:22:49;;;;;;;16.52;3.83;;;20.70;99.90;;;;;;5071491;28;20235;-71
2023/04/20 08:25:39;;;;;;;17.23;3.90;;;20.60;99.90;;;;;;5098021;27;20231;-74
2023/04/20 08:28:29;;;;;;;23.60;4.50;;;21.20;99.90;;;;;;5072281;28;20211;-69
2023/04/20 08:31:22;;;;;;;19.25;4.25;;;20.70;99.90;;;;;;5075474;28;20215;-71
2023/04/20 08:34:12;;;;;;;16.08;3.42;;;21.10;99.90;;;;;;5076010;28;20216;-69
2023/04/20 08:37:01;;;;;;;14.23;3.72;;;21.30;99.90;;;;;;5067834;28;20247;-70
2023/04/20 08:39:50;;;;;;;17.05;4.40;;;22.00;99.90;;;;;;5071538;28;20228;-69
2023/04/20 08:42:39;;;;;;;14.40;3.50;;;22.20;99.90;;;;;;5074501;28;20315;-70
2023/04/20 08:45:30;;;;;;;14.18;3.30;;;21.40;99.90;;;;;;5073925;28;20321;-70
2023/04/20 08:48:20;;;;;;;16.02;3.47;;;22.30;99.20;;;;;;5077387;28;20364;-70
2023/04/20 08:51:11;;;;;;;18.98;4.13;;;22.40;99.80;;;;;;5073645;28;20227;-72
2023/04/20 08:54:05;;;;;;;13.90;3.70;;;22.40;99.00;;;;;;5084864;28;20912;-70
2023/04/20 08:56:55;;;;;;;17.08;4.13;;;23.20;98.10;;;;;;5068614;28;20881;-72
2023/04/20 08:59:45;;;;;;;9.48;3.42;;;22.90;95.60;;;;;;5064192;27;20234;-71
2023/04/20 09:02:35;;;;;;;12.60;3.88;;;22.80;95.20;;;;;;5076142;28;20215;-70
2023/04/20 09:05:29;;;;;;;20.05;4.30;;;22.30;96.00;;;;;;5069762;28;20868;-73
2023/04/20 09:08:18;;;;;;;12.40;3.63;;;22.80;94.00;;;;;;5072159;28;20216;-72
2023/04/20 09:11:21;;;;;;;13.32;3.70;;;22.80;93.40;;;;;;5071808;28;20234;-72
2023/04/20 09:14:12;;;;;;;19.65;3.42;;;22.60;93.90;;;;;;5077421;28;20235;-71
2023/04/20 09:17:03;;;;;;;13.00;3.80;;;22.50;92.00;;;;;;5077545;28;20255;-71
2023/04/20 09:19:54;;;;;;;14.23;3.63;;;22.00;91.90;;;;;;5072671;28;20228;-72
2023/04/20 09:22:43;;;;;;;13.57;3.72;;;22.80;91.70;;;;;;5076516;28;20701;-72
2023/04/20 09:25:32;;;;;;;11.95;2.70;;;24.10;91.70;;;;;;5071614;28;20607;-71
2023/04/20 09:28:21;;;;;;;13.98;3.30;;;24.90;86.20;;;;;;5069213;28;20307;-71
2023/04/20 09:31:17;;;;;;;9.60;2.88;;;25.40;88.70;;;;;;5064706;28;20212;-72
2023/04/20 09:34:07;;;;;;;17.35;3.55;;;24.90;79.00;;;;;;5068781;28;20236;-72
2023/04/20 09:36:57;;;;;;;11.07;3.45;;;25.10;84.50;;;;;;5070219;28;20555;-72
2023/04/20 09:39:46;;;;;;;13.52;3.70;;;24.40;78.80;;;;;;5082800;27;20333;-71
2023/04/20 09:42:38;;;;;;;12.60;3.38;;;24.70;80.00;;;;;;5082702;28;20243;-71
2023/04/20 09:45:27;;;;;;;11.85;3.38;;;25.60;76.00;;;;;;5069929;28;20636;-71
2023/04/20 09:48:18;;;;;;;11.70;3.50;;;25.50;74.30;;;;;;5070777;28;20620;-72
2023/04/20 09:51:07;;;;;;;11.20;3.63;;;25.90;72.30;;;;;;5071295;28;20212;-72
2023/04/20 09:53:59;;;;;;;10.98;2.97;;;26.70;70.80;;;;;;5071679;28;20662;-72
2023/04/20 09:56:49;;;;;;;10.15;3.33;;;27.00;67.80;;;;;;5080526;28;20300;-72
2023/04/20 09:59:40;;;;;;;9.88;3.28;;;26.90;66.40;;;;;;5082954;27;20223;-73
2023/04/20 10:02:29;;;;;;;6.57;2.88;;;26.30;64.50;;;;;;5066612;28;20228;-71
2023/04/20 10:05:35;;;;;;;11.00;3.15;;;26.10;65.50;;;;;;5069265;28;20227;-72
2023/04/20 10:08:25;;;;;;;7.35;3.20;;;25.40;64.00;;;;;;5073700;28;20729;-72
2023/04/20 10:11:30;;;;;;;10.40;3.97;;;26.30;63.70;;;;;;5067515;28;20216;-72
2023/04/20 10:14:37;;;;;;;15.93;3.45;;;24.00;66.80;;;;;;5079460;28;20219;-72
2023/04/20 10:17:30;;;;;;;9.48;3.13;;;23.10;65.20;;;;;;5067229;28;20228;-72
2023/04/20 10:20:21;;;;;;;15.32;3.45;;;22.00;66.10;;;;;;5094290;27;20224;-71
2023/04/20 10:23:13;;;;;;;10.07;3.15;;;22.30;66.00;;;;;;5075461;28;20286;-71
2023/04/20 10:26:02;;;;;;;5.05;2.50;;;21.30;67.30;;;;;;5069039;28;20219;-70
2023/04/20 10:28:53;;;;;;;12.15;2.85;;;20.90;68.60;;;;;;5072364;28;20232;-71
2023/04/20 10:31:43;;;;;;;9.48;2.92;;;21.80;64.10;;;;;;5092301;27;20231;-70
2023/04/20 10:34:32;;;;;;;5.85;2.75;;;23.00;63.70;;;;;;5069872;28;20567;-72
2023/04/20 10:37:22;;;;;;;8.82;3.08;;;23.90;60.60;;;;;;5095960;27;20952;-71
2023/04/20 10:40:12;;;;;;;7.78;2.85;;;24.30;59.90;;;;;;5070994;28;20810;-72
2023/04/20 10:43:01;;;;;;;12.25;3.53;;;25.90;60.10;;;;;;5068441;28;20729;-74
2023/04/20 10:45:52;;;;;;;5.78;3.50;;;22.80;58.80;;;;;;5065853;28;20220;-72
2023/04/20 10:48:53;;;;;;;5.50;2.90;;;22.00;60.80;;;;;;5075968;28;20234;-71
2023/04/20 10:51:47;;;;;;;6.55;3.10;;;21.70;60.90;;;;;;5069225;28;20235;-71
2023/04/20 10:54:38;;;;;;;6.00;3.05;;;24.60;59.70;;;;;;5073500;28;20225;-72
2023/04/20 10:57:27;;;;;;;5.60;2.90;;;24.60;54.00;;;;;;5082147;27;20261;-71
2023/04/20 11:00:21;;;;;;;8.38;3.40;;;24.80;55.00;;;;;;5067305;28;20250;-71
2023/04/20 11:03:11;;;;;;;9.57;3.50;;;26.40;54.60;;;;;;5073133;28;20276;-71
2023/04/20 11:06:02;;;;;;;9.07;3.33;;;27.50;54.20;;;;;;5070877;28;20789;-72
2023/04/20 11:08:51;;;;;;;7.88;3.55;;;28.10;52.80;;;;;;5069359;28;20230;-73
2023/04/20 11:11:40;;;;;;;8.82;3.42;;;28.20;52.70;;;;;;5073934;28;20223;-71
2023/04/20 11:14:29;;;;;;;8.40;3.20;;;26.20;51.40;;;;;;5072255;28;20220;-70
2023/04/20 11:17:20;;;;;;;7.85;5.55;;;26.00;51.20;;;;;;5066772;28;20220;-73
2023/04/20 11:20:13;;;;;;;9.50;3.70;;;25.00;53.80;;;;;;5071150;28;20685;-72
2023/04/20 11:23:03;;;;;;;5.45;3.40;;;24.90;52.70;;;;;;5070743;27;20357;-72
2023/04/20 11:25:53;;;;;;;9.10;3.35;;;26.40;53.30;;;;;;5073044;28;20306;-69
2023/04/20 11:28:53;;;;;;;8.93;3.50;;;28.60;52.90;;;;;;5069696;28;20230;-70
2023/04/20 11:31:54;;;;;;;8.20;3.63;;;29.10;48.70;;;;;;5070125;28;20223;-71
2023/04/20 11:34:43;;;;;;;7.43;3.55;;;24.30;51.40;;;;;;5072564;28;20223;-71
2023/04/20 11:37:49;;;;;;;7.35;3.88;;;23.20;53.00;;;;;;5074475;28;20350;-71
2023/04/20 11:40:39;;;;;;;9.55;3.90;;;22.50;55.60;;;;;;5068788;28;20781;-69
2023/04/20 11:43:28;;;;;;;7.38;3.70;;;25.90;54.90;;;;;;5069932;28;20219;-70
2023/04/20 11:46:18;;;;;;;9.55;3.53;;;29.50;51.10;;;;;;5070490;28;20703;-69
2023/04/20 11:49:07;;;;;;;8.35;3.72;;;29.30;47.30;;;;;;5068454;28;20705;-70
2023/04/20 11:51:56;;;;;;;12.13;3.60;;;24.40;51.20;;;;;;5069886;28;20239;-71
2023/04/20 11:54:46;;;;;;;10.48;3.85;;;23.20;53.80;;;;;;5074106;28;20334;-71
2023/04/20 11:57:35;;;;;;;10.52;3.60;;;21.60;56.60;;;;;;5063170;28;20228;-71
2023/04/20 12:00:24;;;;;;;9.95;4.20;;;21.60;57.00;;;;;;5067243;28;20224;-71
2023/04/20 12:03:13;;;;;;;8.60;3.13;;;26.10;54.80;;;;;;5100970;27;20228;-70
2023/04/20 12:06:02;;;;;;;8.68;4.35;;;28.20;50.50;;;;;;5069886;28;20223;-70
2023/04/20 12:08:51;;;;;;;8.02;3.67;;;27.40;49.90;;;;;;5068634;28;20682;-71
2023/04/20 12:11:41;;;;;;;7.55;3.30;;;25.70;50.70;;;;;;5066943;28;20638;-73
2023/04/20 12:14:32;;;;;;;8.95;3.80;;;24.60;52.60;;;;;;5072147;28;20220;-72
2023/04/20 12:17:21;;;;;;;7.15;4.30;;;23.90;53.30;;;;;;5072666;28;20292;-69
2023/04/20 12:20:11;;;;;;;8.30;3.42;;;23.00;54.40;;;;;;5071385;28;20224;-72
2023/04/20 12:23:01;;;;;;;8.18;3.53;;;21.30;54.10;;;;;;5071563;28;20216;-72
2023/04/20 12:25:50;;;;;;;12.32;3.50;;;20.40;56.90;;;;;;5079148;27;20223;-71
2023/04/20 12:28:40;;;;;;;10.80;3.55;;;20.50;58.30;;;;;;5076600;28;20220;-71
2023/04/20 12:31:29;;;;;;;7.30;3.30;;;20.30;58.30;;;;;;5076551;28;20219;-70
2023/04/20 12:34:18;;;;;;;9.23;3.40;;;20.40;58.60;;;;;;5078192;28;20242;-69
2023/04/20 12:37:07;;;;;;;5.88;3.13;;;20.60;59.10;;;;;;5082440;28;20306;-69
2023/04/20 12:39:56;;;;;;;8.15;3.28;;;20.80;58.00;;;;;;5093930;27;20587;-70
2023/04/20 12:42:45;;;;;;;9.57;3.70;;;20.90;57.80;;;;;;5067306;28;20236;-70
2023/04/20 12:45:35;;;;;;;8.45;3.83;;;20.30;57.60;;;;;;5079521;28;20759;-70
2023/04/20 12:48:24;;;;;;;9.05;3.47;;;20.30;57.60;;;;;;5078233;28;20230;-70
2023/04/20 12:51:14;;;;;;;7.55;3.20;;;20.10;57.30;;;;;;5074176;28;20226;-68
2023/04/20 12:54:03;;;;;;;8.13;3.83;;;20.20;57.10;;;;;;5070658;28;20222;-72
2023/04/20 12:56:51;;;;;;;6.15;3.40;;;20.30;57.50;;;;;;5076061;28;20224;-68
2023/04/20 12:59:41;;;;;;;14.63;3.58;;;20.30;56.20;;;;;;5082735;28;20226;-69
2023/04/20 13:02:32;;;;;;;9.48;3.30;;;20.50;57.10;;;;;;5072871;28;20307;-69
2023/04/20 13:05:22;;;;;;;8.77;3.75;;;20.70;56.90;;;;;;5075153;28;20219;-71
2023/04/20 13:08:11;;;;;;;7.65;3.50;;;20.60;56.00;;;;;;5108522;27;20311;-71
2023/04/20 13:11:00;;;;;;;10.02;3.78;;;20.70;56.60;;;;;;5075400;28;20235;-69
2023/04/20 13:13:48;;;;;;;7.55;3.28;;;20.50;56.60;;;;;;5075976;28;20758;-71
2023/04/20 13:16:37;;;;;;;6.53;3.55;;;20.50;56.80;;;;;;5070801;28;20230;-69
2023/04/20 13:19:29;;;;;;;8.68;3.30;;;20.50;56.50;;;;;;5074104;28;20413;-72
2023/04/20 13:22:18;;;;;;;10.65;3.40;;;20.50;56.70;;;;;;5071124;28;20223;-70
2023/04/20 13:25:07;;;;;;;7.85;3.42;;;20.50;57.00;;;;;;5053542;28;20729;-71
2023/04/20 13:27:56;;;;;;;6.38;3.47;;;20.20;56.80;;;;;;5074487;28;20720;-71
2023/04/20 13:30:45;;;;;;;5.95;3.33;;;20.20;57.00;;;;;;5068019;28;20220;-71
2023/04/20 13:33:34;;;;;;;10.93;3.63;;;20.30;57.80;;;;;;5072186;28;20227;-72
2023/04/20 13:36:24;;;;;;;6.55;3.65;;;20.40;56.60;;;;;;5064602;28;20228;-72
2023/04/20 13:39:14;;;;;;;5.32;3.20;;;20.30;56.50;;;;;;5073781;28;20226;-75
2023/04/20 13:42:03;;;;;;;12.82;3.60;;;20.10;56.50;;;;;;5079722;28;20226;-73
2023/04/20 13:44:51;;;;;;;12.68;3.88;;;20.10;56.30;;;;;;5082920;28;20224;-72
2023/04/20 13:47:41;;;;;;;7.20;3.55;;;19.90;56.80;;;;;;5077253;28;20587;-72
2023/04/20 13:50:29;;;;;;;7.20;3.60;;;19.70;56.90;;;;;;5090352;28;20230;-72
2023/04/20 13:53:20;;;;;;;8.52;3.70;;;19.80;56.80;;;;;;5076207;28;20219;-72
2023/04/20 13:56:09;;;;;;;5.13;3.60;;;19.90;57.30;;;;;;5070324;28;20236;-71
2023/04/20 13:58:58;;;;;;;6.85;3.75;;;19.90;57.30;;;;;;5090058;28;20222;-72
2023/04/20 14:01:46;;;;;;;10.30;3.80;;;20.10;57.40;;;;;;5081479;28;20223;-69
2023/04/20 14:04:35;;;;;;;11.75;4.28;;;20.10;57.40;;;;;;5071388;28;20639;-73
2023/04/20 14:07:25;;;;;;;8.65;3.75;;;19.90;57.30;;;;;;5055162;28;20234;-71
2023/04/20 14:10:15;;;;;;;8.05;3.75;;;19.80;58.00;;;;;;5093140;27;20243;-71
2023/04/20 14:13:04;;;;;;;4.72;3.55;;;19.60;58.10;;;;;;5073175;28;20297;-71
2023/04/20 14:15:53;;;;;;;5.05;3.30;;;19.50;58.40;;;;;;5074916;28;20219;-70
2023/04/20 14:18:42;;;;;;;6.65;3.50;;;19.60;59.30;;;;;;5077260;28;20231;-72
2023/04/20 14:21:32;;;;;;;5.63;3.70;;;19.40;58.50;;;;;;5070741;28;20227;-72
2023/04/20 14:24:21;;;;;;;4.65;3.60;;;19.40;59.50;;;;;;5074970;28;20219;-73
2023/04/20 14:27:11;;;;;;;7.43;3.53;;;19.40;58.70;;;;;;5104971;27;20224;-73
2023/04/20 14:30:01;;;;;;;5.60;3.42;;;19.40;58.40;;;;;;5076026;28;20238;-71
2023/04/20 14:32:55;;;;;;;5.97;3.70;;;19.40;58.40;;;;;;5070023;28;20222;-72
2023/04/20 14:35:45;;;;;;;6.10;3.53;;;19.70;58.20;;;;;;5069781;28;20227;-70